Terminal Aerodrome Forecast
Issued by NWS Wilmington, OH

Home | Current Version | Previous Version | Text Only | Print | Product List | Glossary On
Versions: 1 2 3 4 5 6 7 8 9 10 11 12 13 14 15 16 17 18 19 20 21 22 23 24 25
935
FTUS41 KILN 271305 AAA
TAFCVG
TAF AMD
KCVG 271305Z 2713/2818 14004KT P6SM SCT035 BKN250
     FM272200 16005KT P6SM -SHRA VCTS BKN040CB BKN090
     FM280200 20005KT P6SM BKN035
     FM281100 VRB03KT 1/4SM FG OVC002
     FM281400 31005KT P6SM BKN012=

USA.gov is the U.S. government's official web portal to all federal, state and local government web resources and services.